Time;durP1;ratioP1;P1;durP2;ratioP2;P2;SDS_P1;SDS_P2;PMS_P1;PMS_P2;Temp;Humidity;BMP_temperature;BMP_pressure;BME280_temperature;BME280_humidity;BME280_pressure;Samples;Min_cycle;Max_cycle;Signal;HPM_P1;HPM_P2
2023/09/22 09:37:43;;;;;;;;;9.00;7.00;;;;;;;;5078556;27;14175;-75
2023/09/22 09:40:10;;;;;;;;;7.25;7.25;;;;;;;;5066172;28;9528;-71
2023/09/22 09:42:40;;;;;;;;;5.00;5.00;;;;;;;;5057529;28;9567;-71
2023/09/22 09:45:05;;;;;;;;;8.00;6.67;;;;;;;;5058747;28;10052;-73
2023/09/22 09:47:35;;;;;;;;;8.00;6.00;;;;;;;;5075381;23;9059;-72
2023/09/22 09:50:00;;;;;;;;;9.00;6.50;;;;;;;;5058836;28;8861;-72
2023/09/22 09:52:26;;;;;;;;;10.33;6.67;;;;;;;;5064590;28;8818;-72
2023/09/22 09:54:56;;;;;;;;;7.00;5.50;;;;;;;;5064360;28;8844;-75
2023/09/22 09:57:22;;;;;;;;;10.00;7.00;;;;;;;;5065093;28;8838;-72
2023/09/22 09:59:48;;;;;;;;;6.00;5.00;;;;;;;;5065110;28;8833;-73
2023/09/22 10:02:14;;;;;;;;;6.33;6.33;;;;;;;;5065023;28;8880;-72
2023/09/22 10:04:40;;;;;;;;;4.00;4.00;;;;;;;;5065873;28;8822;-76
2023/09/22 10:07:06;;;;;;;;;5.00;5.00;;;;;;;;5063421;28;8810;-77
2023/09/22 10:09:31;;;;;;;;;6.25;4.75;;;;;;;;5047792;28;8846;-76
2023/09/22 10:11:58;;;;;;;;;8.00;4.33;;;;;;;;5065873;28;8812;-76
2023/09/22 10:14:43;;;;;;;;;5.00;5.00;;;;;;;;5065623;28;8814;-73
2023/09/22 10:17:21;;;;;;;;;6.75;5.75;;;;;;;;5065480;28;8826;-73
2023/09/22 10:19:47;;;;;;;;;8.00;6.00;;;;;;;;5065151;28;8896;-74
2023/09/22 10:22:12;;;;;;;;;7.00;6.00;;;;;;;;5047629;28;8810;-73
2023/09/22 10:24:38;;;;;;;;;4.00;4.00;;;;;;;;5047588;28;8844;-73
2023/09/22 10:27:11;;;;;;;;;5.00;5.00;;;;;;;;5047090;28;8848;-74
2023/09/22 10:29:42;;;;;;;;;4.50;4.25;;;;;;;;5065647;28;8790;-73
2023/09/22 10:32:20;;;;;;;;;5.25;5.25;;;;;;;;5065121;28;8794;-74
2023/09/22 10:34:53;;;;;;;;;6.75;5.25;;;;;;;;5064602;28;8883;-74
2023/09/22 10:37:24;;;;;;;;;6.00;6.00;;;;;;;;5061713;28;8818;-76
2023/09/22 10:39:55;;;;;;;;;4.50;4.50;;;;;;;;5062073;28;8890;-75
2023/09/22 10:42:21;;;;;;;;;6.75;5.50;;;;;;;;5046657;28;8806;-75
2023/09/22 10:45:03;;;;;;;;;6.00;6.00;;;;;;;;5064126;28;8802;-75
2023/09/22 10:47:40;;;;;;;;;6.00;6.00;;;;;;;;5056793;28;8842;-73
2023/09/22 10:50:13;;;;;;;;;5.25;5.25;;;;;;;;5033141;28;8861;-74
2023/09/22 10:52:39;;;;;;;;;7.33;5.00;;;;;;;;5033655;28;8814;-77
2023/09/22 10:55:05;;;;;;;;;6.50;5.00;;;;;;;;5051653;28;9025;-78
2023/09/22 10:57:31;;;;;;;;;4.50;4.50;;;;;;;;5050974;28;9491;-80
2023/09/22 10:59:56;;;;;;;;;9.67;8.33;;;;;;;;5051706;28;9509;-76
2023/09/22 11:02:26;;;;;;;;;5.67;4.00;;;;;;;;5032922;28;8844;-72
2023/09/22 11:04:52;;;;;;;;;5.75;5.75;;;;;;;;5051398;28;8814;-76
2023/09/22 11:07:32;;;;;;;;;7.33;6.00;;;;;;;;5050562;28;8937;-75
2023/09/22 11:09:59;;;;;;;;;7.33;5.00;;;;;;;;5050422;28;8798;-75
2023/09/22 17:29:23;;;;;;;;;3.00;3.00;;;;;;;;5166210;27;13310;-70
2023/09/22 17:31:48;;;;;;;;;1.25;1.00;;;;;;;;5148370;27;9718;-70
2023/09/22 17:34:14;;;;;;;;;3.25;2.00;;;;;;;;5148632;27;8797;-70
2023/09/22 17:36:39;;;;;;;;;3.00;1.75;;;;;;;;5148528;27;8813;-69
2023/09/22 17:39:05;;;;;;;;;4.75;3.00;;;;;;;;5148184;27;8811;-68
2023/09/22 17:41:31;;;;;;;;;2.75;2.00;;;;;;;;5148278;27;8787;-70
2023/09/22 17:43:56;;;;;;;;;4.00;3.00;;;;;;;;5147890;27;9515;-72
2023/09/22 17:46:24;;;;;;;;;3.00;3.00;;;;;;;;5161365;22;8889;-77
2023/09/22 17:48:51;;;;;;;;;3.00;2.00;;;;;;;;5022737;28;10988;-81
2023/09/22 17:51:18;;;;;;;;;4.00;2.75;;;;;;;;5046278;28;9471;-80
2023/09/22 17:53:43;;;;;;;;;4.33;2.00;;;;;;;;5046316;28;9442;-78
2023/09/22 17:56:09;;;;;;;;;3.00;2.00;;;;;;;;5045704;28;9330;-75
2023/09/22 17:58:35;;;;;;;;;4.00;3.00;;;;;;;;5045798;28;8848;-74
2023/09/22 18:01:03;;;;;;;;;8.00;5.00;;;;;;;;5046110;28;8812;-78
2023/09/22 18:03:28;;;;;;;;;3.00;3.00;;;;;;;;5045851;28;8824;-81
2023/09/22 18:05:57;;;;;;;;;5.33;2.00;;;;;;;;5045816;28;9533;-74
2023/09/22 18:08:23;;;;;;;;;5.00;5.00;;;;;;;;5045963;28;8926;-75
2023/09/22 18:10:51;;;;;;;;;3.00;3.00;;;;;;;;5045446;28;10117;-75
2023/09/22 18:13:16;;;;;;;;;2.33;2.33;;;;;;;;5045678;28;8800;-77
2023/09/22 18:15:43;;;;;;;;;4.50;4.00;;;;;;;;5046081;28;9267;-82
2023/09/22 18:18:11;;;;;;;;;3.00;1.67;;;;;;;;5061097;28;8913;-80
2023/09/22 18:20:37;;;;;;;;;2.67;2.67;;;;;;;;5045907;28;9135;-76
2023/09/22 18:23:03;;;;;;;;;3.33;2.67;;;;;;;;5060542;28;9287;-78
2023/09/22 18:25:28;;;;;;;;;2.67;2.00;;;;;;;;5060807;28;8879;-75
2023/09/22 18:27:53;;;;;;;;;1.33;1.00;;;;;;;;5059152;28;11570;-76
2023/09/22 18:30:19;;;;;;;;;2.00;2.00;;;;;;;;5043534;28;8939;-72
2023/09/22 18:32:44;;;;;;;;;2.00;2.00;;;;;;;;5043699;28;8835;-67
2023/09/22 18:35:09;;;;;;;;;1.00;1.00;;;;;;;;5043891;28;8886;-68
2023/09/22 18:37:35;;;;;;;;;0.67;0.67;;;;;;;;5044022;28;8930;-67
2023/09/22 18:40:00;;;;;;;;;6.00;2.33;;;;;;;;5050499;28;9548;-68
2023/09/22 18:42:26;;;;;;;;;1.00;1.00;;;;;;;;5023842;28;8812;-68
2023/09/22 18:44:51;;;;;;;;;2.00;2.00;;;;;;;;5030752;28;9558;-68
2023/09/22 18:47:19;;;;;;;;;2.00;2.00;;;;;;;;5020053;28;8856;-68
2023/09/22 18:49:47;;;;;;;;;3.00;1.75;;;;;;;;5016284;28;8867;-68
2023/09/22 18:52:13;;;;;;;;;1.67;1.33;;;;;;;;5031914;28;9531;-68
2023/09/22 18:54:40;;;;;;;;;5.75;5.75;;;;;;;;5031633;28;9387;-66
2023/09/22 18:57:06;;;;;;;;;3.00;3.00;;;;;;;;5031584;28;8816;-68
2023/09/22 18:59:31;;;;;;;;;7.25;4.00;;;;;;;;5030273;28;9659;-66
2023/09/22 19:01:56;;;;;;;;;8.00;5.50;;;;;;;;5023674;28;8830;-67
2023/09/22 19:04:22;;;;;;;;;2.25;1.50;;;;;;;;5028901;28;8901;-67
2023/09/22 19:06:47;;;;;;;;;24.75;21.75;;;;;;;;5031386;28;8830;-67
2023/09/22 19:09:13;;;;;;;;;65.75;51.25;;;;;;;;5046463;28;8831;-67
2023/09/22 19:11:38;;;;;;;;;53.75;41.00;;;;;;;;5031319;28;8811;-68
2023/09/22 19:14:03;;;;;;;;;29.50;25.75;;;;;;;;5031504;28;8800;-66
2023/09/22 19:16:29;;;;;;;;;19.75;19.75;;;;;;;;4997494;28;11315;-67
2023/09/22 19:18:55;;;;;;;;;13.00;12.25;;;;;;;;5026934;28;8866;-67
2023/09/22 19:21:25;;;;;;;;;4.00;4.00;;;;;;;;5041565;28;8851;-66
2023/09/22 19:23:54;;;;;;;;;2.00;2.00;;;;;;;;5022014;28;9504;-67
2023/09/22 19:26:19;;;;;;;;;0.67;0.67;;;;;;;;5036224;28;9280;-68
2023/09/22 19:28:45;;;;;;;;;3.00;3.00;;;;;;;;5014113;28;9242;-67
2023/09/22 19:31:11;;;;;;;;;1.33;1.33;;;;;;;;4999504;28;8871;-67
2023/09/22 19:33:36;;;;;;;;;1.00;1.00;;;;;;;;5018118;28;8849;-66
2023/09/22 19:36:02;;;;;;;;;3.00;3.00;;;;;;;;5020500;28;8808;-68
2023/09/22 19:38:28;;;;;;;;;1.67;1.67;;;;;;;;5022351;28;8804;-67
2023/09/22 19:40:53;;;;;;;;;1.67;1.00;;;;;;;;5021664;28;9920;-68
2023/09/22 19:43:19;;;;;;;;;3.00;2.00;;;;;;;;5020315;28;8820;-66
2023/09/22 19:45:45;;;;;;;;;2.00;1.50;;;;;;;;5028015;28;8826;-68
2023/09/22 19:48:10;;;;;;;;;2.50;2.50;;;;;;;;5041966;28;11444;-66
2023/09/22 19:50:37;;;;;;;;;1.25;1.00;;;;;;;;5022690;28;8818;-72
2023/09/22 19:53:05;;;;;;;;;3.00;3.00;;;;;;;;5037098;28;10042;-71
2023/09/22 19:55:31;;;;;;;;;2.25;1.00;;;;;;;;5025633;28;10498;-72
2023/09/22 19:57:56;;;;;;;;;2.50;1.00;;;;;;;;5030206;28;9679;-70
2023/09/22 20:00:22;;;;;;;;;2.50;1.25;;;;;;;;5030407;28;8811;-67
2023/09/22 20:02:48;;;;;;;;;0.50;0.50;;;;;;;;5031007;28;8877;-68
2023/09/22 20:05:14;;;;;;;;;1.00;0.50;;;;;;;;5046091;28;9503;-69
2023/09/22 20:07:40;;;;;;;;;3.00;1.00;;;;;;;;5030876;28;8800;-69
2023/09/22 20:10:07;;;;;;;;;0.00;0.00;;;;;;;;5030669;28;10240;-69
2023/09/22 20:12:33;;;;;;;;;0.25;0.00;;;;;;;;5030530;28;8792;-69
2023/09/22 20:14:58;;;;;;;;;1.50;0.75;;;;;;;;5014559;28;9618;-69
2023/09/22 20:17:24;;;;;;;;;0.50;0.50;;;;;;;;5010329;28;9569;-68
2023/09/22 20:19:51;;;;;;;;;0.25;0.25;;;;;;;;5010357;28;8807;-68
2023/09/22 20:22:16;;;;;;;;;0.00;0.00;;;;;;;;5025959;28;8822;-71
2023/09/22 20:24:42;;;;;;;;;1.00;1.00;;;;;;;;5010704;28;9544;-71
2023/09/22 20:27:08;;;;;;;;;2.00;0.00;;;;;;;;5010566;28;8818;-72
2023/09/22 20:29:34;;;;;;;;;3.75;1.00;;;;;;;;5025776;28;8818;-71
2023/09/22 20:32:01;;;;;;;;;1.50;1.00;;;;;;;;5010449;28;8810;-71
2023/09/22 20:34:27;;;;;;;;;0.33;0.33;;;;;;;;5025392;28;9509;-71
2023/09/22 20:36:52;;;;;;;;;4.00;0.67;;;;;;;;5025525;28;9307;-71
2023/09/22 20:39:18;;;;;;;;;1.50;0.25;;;;;;;;5010316;28;8849;-70
2023/09/22 20:41:43;;;;;;;;;3.00;1.00;;;;;;;;5010166;28;8928;-70
2023/09/22 20:44:10;;;;;;;;;1.00;0.00;;;;;;;;5024967;28;8845;-70
2023/09/22 20:46:38;;;;;;;;;1.00;1.00;;;;;;;;5045158;28;8816;-74
2023/09/22 20:49:05;;;;;;;;;1.00;1.00;;;;;;;;5029571;28;9270;-71
2023/09/22 20:51:31;;;;;;;;;0.50;0.50;;;;;;;;5029169;28;9515;-70
2023/09/22 20:53:58;;;;;;;;;0.00;0.00;;;;;;;;5039627;28;9626;-70
2023/09/22 20:56:24;;;;;;;;;0.00;0.00;;;;;;;;5008405;28;9417;-69
2023/09/22 20:58:51;;;;;;;;;0.33;0.33;;;;;;;;5007531;28;10094;-70
2023/09/22 21:01:16;;;;;;;;;0.00;0.00;;;;;;;;5009590;28;9274;-70
2023/09/22 21:03:41;;;;;;;;;0.00;0.00;;;;;;;;5009281;28;9298;-70
2023/09/22 21:06:07;;;;;;;;;0.00;0.00;;;;;;;;5009628;28;8833;-70
2023/09/22 21:08:32;;;;;;;;;1.67;0.00;;;;;;;;5007824;28;8938;-70
2023/09/22 21:11:00;;;;;;;;;1.67;0.00;;;;;;;;5009446;28;8837;-69
2023/09/22 21:13:26;;;;;;;;;0.00;0.00;;;;;;;;5018290;28;8792;-70
2023/09/22 21:15:53;;;;;;;;;0.75;0.75;;;;;;;;5028865;28;9335;-69
2023/09/22 21:18:18;;;;;;;;;0.00;0.00;;;;;;;;5028890;28;8823;-69
2023/09/22 21:20:43;;;;;;;;;0.00;0.00;;;;;;;;5028910;28;9272;-70
2023/09/22 21:23:09;;;;;;;;;1.00;0.00;;;;;;;;5029264;28;8852;-70
2023/09/22 21:25:35;;;;;;;;;0.00;0.00;;;;;;;;5044746;28;8965;-71
2023/09/22 21:28:00;;;;;;;;;1.33;0.00;;;;;;;;5029291;28;8850;-71
2023/09/22 21:30:25;;;;;;;;;0.50;0.50;;;;;;;;5029002;28;8811;-71
2023/09/22 21:32:51;;;;;;;;;0.00;0.00;;;;;;;;5028837;28;8788;-69
2023/09/22 21:35:16;;;;;;;;;2.00;1.00;;;;;;;;5028458;28;8803;-70
2023/09/22 21:37:42;;;;;;;;;0.25;0.25;;;;;;;;5028853;28;9589;-75
2023/09/22 21:40:08;;;;;;;;;1.00;1.00;;;;;;;;5029418;28;8839;-73
2023/09/22 21:42:34;;;;;;;;;0.00;0.00;;;;;;;;5029144;28;8910;-73
2023/09/22 21:44:59;;;;;;;;;1.00;1.00;;;;;;;;5029417;28;8839;-73
2023/09/22 21:47:24;;;;;;;;;0.00;0.00;;;;;;;;5029428;28;8867;-73
2023/09/22 21:49:51;;;;;;;;;0.00;0.00;;;;;;;;5028960;28;8796;-73
2023/09/22 21:52:17;;;;;;;;;0.00;0.00;;;;;;;;5044680;28;8839;-73
2023/09/22 21:54:42;;;;;;;;;0.00;0.00;;;;;;;;5029610;28;9434;-73
2023/09/22 21:57:08;;;;;;;;;0.00;0.00;;;;;;;;5029143;28;8818;-72
2023/09/22 21:59:34;;;;;;;;;1.00;1.00;;;;;;;;5029468;28;8886;-73
2023/09/22 22:02:00;;;;;;;;;0.00;0.00;;;;;;;;5027839;28;9519;-73
2023/09/22 22:04:25;;;;;;;;;0.00;0.00;;;;;;;;5029180;28;8842;-73
2023/09/22 22:06:52;;;;;;;;;0.75;0.00;;;;;;;;5028763;28;11466;-73
2023/09/22 22:09:18;;;;;;;;;3.00;0.25;;;;;;;;5029138;28;8828;-73
2023/09/22 22:11:45;;;;;;;;;1.00;1.00;;;;;;;;5029079;28;9515;-73
2023/09/22 22:14:13;;;;;;;;;1.33;0.33;;;;;;;;5029716;28;9343;-72
2023/09/22 22:16:42;;;;;;;;;1.00;1.00;;;;;;;;5032867;28;9392;-74
2023/09/22 22:19:08;;;;;;;;;0.00;0.00;;;;;;;;5032863;28;9369;-72
2023/09/22 22:21:36;;;;;;;;;0.00;0.00;;;;;;;;5033029;28;9028;-73
2023/09/22 22:24:05;;;;;;;;;2.00;1.00;;;;;;;;5032479;28;9576;-72
2023/09/22 22:26:31;;;;;;;;;1.00;1.00;;;;;;;;5032674;28;9396;-72
2023/09/22 22:29:00;;;;;;;;;0.00;0.00;;;;;;;;5032753;28;9287;-73
2023/09/22 22:31:25;;;;;;;;;0.00;0.00;;;;;;;;5032717;28;9226;-72
2023/09/22 22:33:50;;;;;;;;;1.00;0.33;;;;;;;;5032720;28;9230;-73
2023/09/22 22:36:16;;;;;;;;;0.67;0.00;;;;;;;;5032506;28;8796;-73
2023/09/22 22:38:42;;;;;;;;;1.67;1.00;;;;;;;;5032330;28;8816;-72
2023/09/22 22:41:07;;;;;;;;;1.00;1.00;;;;;;;;5032421;28;8807;-73
2023/09/22 22:43:34;;;;;;;;;3.00;1.00;;;;;;;;5031683;28;8800;-73
2023/09/22 22:46:04;;;;;;;;;0.67;0.67;;;;;;;;5032143;28;8808;-72
2023/09/22 22:48:29;;;;;;;;;2.00;1.00;;;;;;;;5047459;28;9327;-73
2023/09/22 22:50:56;;;;;;;;;1.00;1.00;;;;;;;;5032213;28;10193;-73
2023/09/22 22:53:21;;;;;;;;;1.00;1.00;;;;;;;;5032249;28;9510;-74
2023/09/22 22:55:46;;;;;;;;;0.00;0.00;;;;;;;;5032114;28;9312;-73
2023/09/22 22:58:14;;;;;;;;;0.00;0.00;;;;;;;;5031916;28;8832;-73
2023/09/22 23:00:41;;;;;;;;;0.67;0.00;;;;;;;;5032011;28;8802;-73
2023/09/22 23:03:08;;;;;;;;;1.00;0.00;;;;;;;;5031369;28;9212;-73
2023/09/22 23:05:36;;;;;;;;;0.00;0.00;;;;;;;;5032042;28;9195;-73
2023/09/22 23:08:03;;;;;;;;;0.00;0.00;;;;;;;;5031784;28;9197;-73
2023/09/22 23:10:28;;;;;;;;;0.00;0.00;;;;;;;;5031774;28;9966;-73
2023/09/22 23:12:54;;;;;;;;;0.00;0.00;;;;;;;;5031482;28;9303;-74
2023/09/22 23:15:20;;;;;;;;;1.00;1.00;;;;;;;;5031627;28;8823;-73
2023/09/22 23:17:45;;;;;;;;;0.00;0.00;;;;;;;;5047149;28;9262;-73
2023/09/22 23:20:14;;;;;;;;;0.00;0.00;;;;;;;;5031043;28;8800;-73
2023/09/22 23:22:39;;;;;;;;;0.00;0.00;;;;;;;;5031379;28;8808;-73
2023/09/22 23:25:07;;;;;;;;;0.33;0.00;;;;;;;;5046495;28;9430;-74
2023/09/22 23:27:32;;;;;;;;;0.00;0.00;;;;;;;;5029967;28;8819;-73
2023/09/22 23:29:59;;;;;;;;;0.50;0.00;;;;;;;;5031877;28;9280;-73
2023/09/22 23:32:26;;;;;;;;;0.00;0.00;;;;;;;;5031997;28;8834;-73
2023/09/22 23:34:51;;;;;;;;;0.00;0.00;;;;;;;;5029856;28;9362;-74
2023/09/22 23:37:17;;;;;;;;;1.00;0.00;;;;;;;;5031011;28;9517;-73
2023/09/22 23:39:43;;;;;;;;;1.00;0.00;;;;;;;;5030950;28;8808;-74
2023/09/22 23:42:09;;;;;;;;;0.00;0.00;;;;;;;;5031116;28;9391;-71
2023/09/22 23:44:41;;;;;;;;;0.00;0.00;;;;;;;;5031099;28;9658;-72
2023/09/22 23:47:06;;;;;;;;;0.00;0.00;;;;;;;;5031094;28;8820;-72
2023/09/22 23:49:32;;;;;;;;;0.00;0.00;;;;;;;;5031089;28;9642;-72
2023/09/22 23:51:58;;;;;;;;;0.00;0.00;;;;;;;;5031123;28;8811;-73
2023/09/22 23:54:25;;;;;;;;;0.00;0.00;;;;;;;;5030729;28;9596;-72
2023/09/22 23:56:51;;;;;;;;;0.00;0.00;;;;;;;;5030162;28;8930;-71
2023/09/22 23:59:17;;;;;;;;;0.00;0.00;;;;;;;;5030804;28;9692;-72
